sensor_id;sensor_type;location;lat;lon;timestamp;pressure;altitude;pressure_sealevel;temperature;humidity
64460;BME280;50828;53.756;21.140;2022-11-23T00:00:48;99294.22;;;-1.07;70.71
64460;BME280;50828;53.756;21.140;2022-11-23T00:05:55;99283.88;;;-1.11;70.72
64460;BME280;50828;53.756;21.140;2022-11-23T00:11:02;99276.28;;;-1.14;70.86
64460;BME280;50828;53.756;21.140;2022-11-23T00:16:13;99279.06;;;-1.17;70.80
64460;BME280;50828;53.756;21.140;2022-11-23T00:21:40;99286.52;;;-1.21;71.01
64460;BME280;50828;53.756;21.140;2022-11-23T00:26:47;99284.81;;;-1.23;70.95
64460;BME280;50828;53.756;21.140;2022-11-23T00:31:54;99280.15;;;-1.24;70.86
64460;BME280;50828;53.756;21.140;2022-11-23T00:37:02;99271.20;;;-1.28;71.04
64460;BME280;50828;53.756;21.140;2022-11-23T00:42:10;99268.26;;;-1.30;71.08
64460;BME280;50828;53.756;21.140;2022-11-23T00:47:17;99269.30;;;-1.32;71.12
64460;BME280;50828;53.756;21.140;2022-11-23T00:52:25;99256.70;;;-1.34;71.13
64460;BME280;50828;53.756;21.140;2022-11-23T00:57:33;99254.30;;;-1.36;71.11
64460;BME280;50828;53.756;21.140;2022-11-23T01:02:41;99246.38;;;-1.37;71.31
64460;BME280;50828;53.756;21.140;2022-11-23T01:07:48;99245.34;;;-1.39;71.25
64460;BME280;50828;53.756;21.140;2022-11-23T01:12:55;99256.05;;;-1.39;71.45
64460;BME280;50828;53.756;21.140;2022-11-23T01:18:03;99265.55;;;-1.40;71.33
64460;BME280;50828;53.756;21.140;2022-11-23T01:23:10;99278.52;;;-1.40;71.47
64460;BME280;50828;53.756;21.140;2022-11-23T01:28:19;99279.71;;;-1.40;71.55
64460;BME280;50828;53.756;21.140;2022-11-23T01:33:27;99281.28;;;-1.42;71.43
64460;BME280;50828;53.756;21.140;2022-11-23T01:38:34;99271.96;;;-1.42;71.45
64460;BME280;50828;53.756;21.140;2022-11-23T01:43:42;99269.36;;;-1.42;71.63
64460;BME280;50828;53.756;21.140;2022-11-23T01:48:52;99266.42;;;-1.41;71.58
64460;BME280;50828;53.756;21.140;2022-11-23T01:54:01;99266.60;;;-1.40;71.53
64460;BME280;50828;53.756;21.140;2022-11-23T01:59:12;99264.52;;;-1.40;71.58
64460;BME280;50828;53.756;21.140;2022-11-23T02:04:26;99262.63;;;-1.40;71.51
64460;BME280;50828;53.756;21.140;2022-11-23T02:09:37;99258.82;;;-1.40;71.58
64460;BME280;50828;53.756;21.140;2022-11-23T02:14:46;99255.37;;;-1.42;71.58
64460;BME280;50828;53.756;21.140;2022-11-23T02:20:01;99259.18;;;-1.44;71.53
64460;BME280;50828;53.756;21.140;2022-11-23T02:25:15;99260.07;;;-1.47;71.55
64460;BME280;50828;53.756;21.140;2022-11-23T02:30:26;99253.17;;;-1.51;71.37
64460;BME280;50828;53.756;21.140;2022-11-23T02:35:53;99254.92;;;-1.53;71.55
64460;BME280;50828;53.756;21.140;2022-11-23T02:41:01;99251.64;;;-1.57;71.51
64460;BME280;50828;53.756;21.140;2022-11-23T02:46:09;99253.73;;;-1.59;71.47
64460;BME280;50828;53.756;21.140;2022-11-23T02:51:18;99258.94;;;-1.63;71.40
64460;BME280;50828;53.756;21.140;2022-11-23T02:56:26;99263.09;;;-1.67;71.37
64460;BME280;50828;53.756;21.140;2022-11-23T03:01:33;99259.13;;;-1.70;71.49
64460;BME280;50828;53.756;21.140;2022-11-23T03:06:43;99262.77;;;-1.72;71.41
64460;BME280;50828;53.756;21.140;2022-11-23T03:11:51;99273.14;;;-1.75;71.48
64460;BME280;50828;53.756;21.140;2022-11-23T03:16:58;99280.92;;;-1.77;71.46
64460;BME280;50828;53.756;21.140;2022-11-23T03:22:08;99286.96;;;-1.79;71.44
64460;BME280;50828;53.756;21.140;2022-11-23T03:27:16;99299.73;;;-1.80;71.37
64460;BME280;50828;53.756;21.140;2022-11-23T03:32:25;99303.20;;;-1.82;71.48
64460;BME280;50828;53.756;21.140;2022-11-23T03:37:32;99295.96;;;-1.85;71.47
64460;BME280;50828;53.756;21.140;2022-11-23T03:42:42;99295.45;;;-1.87;71.49
64460;BME280;50828;53.756;21.140;2022-11-23T03:47:50;99295.43;;;-1.89;71.55
64460;BME280;50828;53.756;21.140;2022-11-23T03:52:57;99296.33;;;-1.91;71.58
64460;BME280;50828;53.756;21.140;2022-11-23T03:58:06;99308.06;;;-1.92;71.53
64460;BME280;50828;53.756;21.140;2022-11-23T04:03:13;99300.80;;;-1.93;71.60
64460;BME280;50828;53.756;21.140;2022-11-23T04:08:56;99304.61;;;-1.94;71.65
64460;BME280;50828;53.756;21.140;2022-11-23T04:14:25;99295.98;;;-1.94;71.84
64460;BME280;50828;53.756;21.140;2022-11-23T04:19:33;99297.37;;;-1.93;71.80
64460;BME280;50828;53.756;21.140;2022-11-23T04:24:41;99302.54;;;-1.94;71.68
64460;BME280;50828;53.756;21.140;2022-11-23T04:29:48;99304.60;;;-1.93;71.78
64460;BME280;50828;53.756;21.140;2022-11-23T04:34:56;99305.64;;;-1.92;71.74
64460;BME280;50828;53.756;21.140;2022-11-23T04:40:06;99302.37;;;-1.92;71.83
64460;BME280;50828;53.756;21.140;2022-11-23T04:45:20;99299.09;;;-1.91;71.90
64460;BME280;50828;53.756;21.140;2022-11-23T04:50:29;99294.25;;;-1.91;71.97
64460;BME280;50828;53.756;21.140;2022-11-23T04:55:37;99293.38;;;-1.89;71.83
64460;BME280;50828;53.756;21.140;2022-11-23T05:00:45;99287.70;;;-1.91;71.80
64460;BME280;50828;53.756;21.140;2022-11-23T05:05:53;99284.58;;;-1.90;71.83
64460;BME280;50828;53.756;21.140;2022-11-23T05:11:07;99288.37;;;-1.91;71.73
64460;BME280;50828;53.756;21.140;2022-11-23T05:16:15;99291.48;;;-1.90;71.90
64460;BME280;50828;53.756;21.140;2022-11-23T05:21:22;99287.52;;;-1.90;71.88
64460;BME280;50828;53.756;21.140;2022-11-23T05:26:31;99287.67;;;-1.89;71.74
64460;BME280;50828;53.756;21.140;2022-11-23T05:31:38;99285.60;;;-1.90;71.84
64460;BME280;50828;53.756;21.140;2022-11-23T05:36:46;99285.62;;;-1.90;71.86
64460;BME280;50828;53.756;21.140;2022-11-23T05:41:54;99283.56;;;-1.91;71.73
64460;BME280;50828;53.756;21.140;2022-11-23T05:47:11;99282.17;;;-1.92;71.84
64460;BME280;50828;53.756;21.140;2022-11-23T05:52:19;99282.69;;;-1.93;71.79
64460;BME280;50828;53.756;21.140;2022-11-23T05:57:26;99283.89;;;-1.93;71.76
64460;BME280;50828;53.756;21.140;2022-11-23T06:02:34;99277.17;;;-1.95;71.70
64460;BME280;50828;53.756;21.140;2022-11-23T06:07:46;99276.83;;;-1.96;71.81
64460;BME280;50828;53.756;21.140;2022-11-23T06:13:04;99279.60;;;-1.97;71.91
64460;BME280;50828;53.756;21.140;2022-11-23T06:18:12;99290.98;;;-1.97;71.76
64460;BME280;50828;53.756;21.140;2022-11-23T06:23:23;99296.15;;;-1.97;71.80
64460;BME280;50828;53.756;21.140;2022-11-23T06:28:31;99286.52;;;-2.06;71.81
64460;BME280;50828;53.756;21.140;2022-11-23T06:33:40;99304.09;;;-1.99;71.63
64460;BME280;50828;53.756;21.140;2022-11-23T06:38:48;99311.52;;;-2.00;71.60
64460;BME280;50828;53.756;21.140;2022-11-23T06:43:59;99314.64;;;-2.01;71.54
64460;BME280;50828;53.756;21.140;2022-11-23T06:49:17;99313.95;;;-2.02;71.59
64460;BME280;50828;53.756;21.140;2022-11-23T06:54:42;99308.09;;;-2.04;71.58
64460;BME280;50828;53.756;21.140;2022-11-23T06:59:50;99306.02;;;-2.06;71.57
64460;BME280;50828;53.756;21.140;2022-11-23T07:05:03;99307.56;;;-2.07;71.56
64460;BME280;50828;53.756;21.140;2022-11-23T07:10:11;99310.52;;;-2.09;71.55
64460;BME280;50828;53.756;21.140;2022-11-23T07:15:24;99311.04;;;-2.11;71.49
64460;BME280;50828;53.756;21.140;2022-11-23T07:20:32;99313.27;;;-2.13;71.55
64460;BME280;50828;53.756;21.140;2022-11-23T07:25:41;99310.52;;;-2.14;71.56
64460;BME280;50828;53.756;21.140;2022-11-23T07:30:50;99317.59;;;-2.14;71.47
64460;BME280;50828;53.756;21.140;2022-11-23T07:36:01;99312.59;;;-2.16;71.45
64460;BME280;50828;53.756;21.140;2022-11-23T07:41:09;99318.80;;;-2.17;71.49
64460;BME280;50828;53.756;21.140;2022-11-23T07:46:26;99321.92;;;-2.20;71.32
64460;BME280;50828;53.756;21.140;2022-11-23T07:51:34;99317.25;;;-2.23;71.22
64460;BME280;50828;53.756;21.140;2022-11-23T07:56:41;99312.44;;;-2.27;71.23
64460;BME280;50828;53.756;21.140;2022-11-23T08:01:49;99305.36;;;-2.31;71.36
64460;BME280;50828;53.756;21.140;2022-11-23T08:07:02;99303.80;;;-2.34;71.39
64460;BME280;50828;53.756;21.140;2022-11-23T08:12:10;99310.02;;;-2.36;71.20
64460;BME280;50828;53.756;21.140;2022-11-23T08:17:18;99318.30;;;-2.39;71.45
64460;BME280;50828;53.756;21.140;2022-11-23T08:22:26;99325.38;;;-2.40;71.42
64460;BME280;50828;53.756;21.140;2022-11-23T08:27:33;99328.30;;;-2.42;71.31
64460;BME280;50828;53.756;21.140;2022-11-23T08:32:41;99336.06;;;-2.43;71.40
64460;BME280;50828;53.756;21.140;2022-11-23T08:37:48;99340.90;;;-2.45;71.27
64460;BME280;50828;53.756;21.140;2022-11-23T08:42:56;99329.52;;;-2.56;71.48
64460;BME280;50828;53.756;21.140;2022-11-23T08:48:05;99344.69;;;-2.47;71.47
64460;BME280;50828;53.756;21.140;2022-11-23T08:53:13;99348.66;;;-2.47;71.48
64460;BME280;50828;53.756;21.140;2022-11-23T08:58:21;99356.76;;;-2.44;71.64
64460;BME280;50828;53.756;21.140;2022-11-23T09:03:28;99363.66;;;-2.42;71.71
64460;BME280;50828;53.756;21.140;2022-11-23T09:08:36;99360.91;;;-2.38;71.75
64460;BME280;50828;53.756;21.140;2022-11-23T09:13:44;99366.25;;;-2.34;71.70
64460;BME280;50828;53.756;21.140;2022-11-23T09:18:56;99363.14;;;-2.34;71.66
64460;BME280;50828;53.756;21.140;2022-11-23T09:24:01;99359.17;;;-2.33;71.61
64460;BME280;50828;53.756;21.140;2022-11-23T09:29:09;99361.59;;;-2.32;71.76
64460;BME280;50828;53.756;21.140;2022-11-23T09:34:16;99364.88;;;-2.30;71.73
64460;BME280;50828;53.756;21.140;2022-11-23T09:39:24;99364.17;;;-2.28;71.69
64460;BME280;50828;53.756;21.140;2022-11-23T09:44:41;99356.92;;;-2.24;71.78
64460;BME280;50828;53.756;21.140;2022-11-23T09:50:01;99348.99;;;-2.23;71.82
64460;BME280;50828;53.756;21.140;2022-11-23T09:55:15;99354.16;;;-2.17;71.78
64460;BME280;50828;53.756;21.140;2022-11-23T10:00:26;99350.70;;;-2.13;71.77
64460;BME280;50828;53.756;21.140;2022-11-23T10:05:37;99342.59;;;-2.09;71.73
64460;BME280;50828;53.756;21.140;2022-11-23T10:10:49;99331.90;;;-2.04;71.85
64460;BME280;50828;53.756;21.140;2022-11-23T10:16:12;99328.27;;;-2.00;71.83
64460;BME280;50828;53.756;21.140;2022-11-23T10:21:32;99327.40;;;-1.98;71.88
64460;BME280;50828;53.756;21.140;2022-11-23T10:26:43;99327.57;;;-1.95;71.71
64460;BME280;50828;53.756;21.140;2022-11-23T10:31:53;99321.35;;;-1.92;71.77
64460;BME280;50828;53.756;21.140;2022-11-23T10:37:01;99318.73;;;-1.89;71.65
64460;BME280;50828;53.756;21.140;2022-11-23T10:42:22;99321.68;;;-1.87;71.72
64460;BME280;50828;53.756;21.140;2022-11-23T10:47:40;99314.09;;;-1.87;71.72
64460;BME280;50828;53.756;21.140;2022-11-23T10:52:53;99314.75;;;-1.81;71.74
64460;BME280;50828;53.756;21.140;2022-11-23T10:58:01;99313.20;;;-1.80;71.70
64460;BME280;50828;53.756;21.140;2022-11-23T11:03:23;99314.58;;;-1.78;71.70
64460;BME280;50828;53.756;21.140;2022-11-23T11:08:32;99309.23;;;-1.78;71.59
64460;BME280;50828;53.756;21.140;2022-11-23T11:13:43;99309.92;;;-1.79;71.48
64460;BME280;50828;53.756;21.140;2022-11-23T11:18:52;99300.94;;;-1.80;71.59
64460;BME280;50828;53.756;21.140;2022-11-23T11:24:02;99297.33;;;-1.81;71.49
64460;BME280;50828;53.756;21.140;2022-11-23T11:29:30;99301.13;;;-1.83;71.48
64460;BME280;50828;53.756;21.140;2022-11-23T11:34:46;99302.17;;;-1.83;71.47
64460;BME280;50828;53.756;21.140;2022-11-23T11:40:01;99296.13;;;-1.83;71.77
64460;BME280;50828;53.756;21.140;2022-11-23T11:45:15;99296.10;;;-1.81;71.63
64460;BME280;50828;53.756;21.140;2022-11-23T11:50:24;99289.20;;;-1.79;71.68
64460;BME280;50828;53.756;21.140;2022-11-23T11:55:47;99276.26;;;-1.78;71.68
64460;BME280;50828;53.756;21.140;2022-11-23T12:01:02;99274.70;;;-1.76;71.64
64460;BME280;50828;53.756;21.140;2022-11-23T12:06:16;99277.28;;;-1.76;71.69
64460;BME280;50828;53.756;21.140;2022-11-23T12:11:31;99278.47;;;-1.73;71.66
64460;BME280;50828;53.756;21.140;2022-11-23T12:16:43;99280.89;;;-1.72;71.73
64460;BME280;50828;53.756;21.140;2022-11-23T12:22:31;99288.48;;;-1.70;71.61
64460;BME280;50828;53.756;21.140;2022-11-23T12:27:47;99292.27;;;-1.67;71.78
64460;BME280;50828;53.756;21.140;2022-11-23T12:33:10;99288.80;;;-1.64;71.77
64460;BME280;50828;53.756;21.140;2022-11-23T12:38:32;99275.49;;;-1.62;71.66
64460;BME280;50828;53.756;21.140;2022-11-23T12:43:51;99277.73;;;-1.58;71.79
64460;BME280;50828;53.756;21.140;2022-11-23T12:49:11;99263.05;;;-1.57;71.78
64460;BME280;50828;53.756;21.140;2022-11-23T12:54:36;99277.37;;;-1.55;71.78
64460;BME280;50828;53.756;21.140;2022-11-23T12:59:50;99287.38;;;-1.53;71.74
64460;BME280;50828;53.756;21.140;2022-11-23T13:05:25;99280.45;;;-1.51;71.85
64460;BME280;50828;53.756;21.140;2022-11-23T13:10:45;99279.24;;;-1.48;71.83
64460;BME280;50828;53.756;21.140;2022-11-23T13:16:09;99277.67;;;-1.44;71.85
64460;BME280;50828;53.756;21.140;2022-11-23T13:21:24;99279.04;;;-1.44;71.78
64460;BME280;50828;53.756;21.140;2022-11-23T13:26:35;99275.77;;;-1.43;71.82
64460;BME280;50828;53.756;21.140;2022-11-23T13:31:43;99274.73;;;-1.44;71.79
64460;BME280;50828;53.756;21.140;2022-11-23T13:36:59;99267.31;;;-1.45;71.77
64460;BME280;50828;53.756;21.140;2022-11-23T13:42:22;99273.52;;;-1.46;71.80
64460;BME280;50828;53.756;21.140;2022-11-23T13:47:30;99273.54;;;-1.48;71.60
64460;BME280;50828;53.756;21.140;2022-11-23T13:52:46;99270.42;;;-1.49;71.61
64460;BME280;50828;53.756;21.140;2022-11-23T14:03:53;99279.25;;;-1.52;71.73
64460;BME280;50828;53.756;21.140;2022-11-23T14:09:04;99281.33;;;-1.53;71.76
64460;BME280;50828;53.756;21.140;2022-11-23T14:14:14;99294.98;;;-1.55;71.67
64460;BME280;50828;53.756;21.140;2022-11-23T14:19:25;99297.77;;;-1.58;71.61
64460;BME280;50828;53.756;21.140;2022-11-23T14:25:01;99308.13;;;-1.60;71.58
64460;BME280;50828;53.756;21.140;2022-11-23T14:30:30;99315.91;;;-1.63;71.53
64460;BME280;50828;53.756;21.140;2022-11-23T14:35:47;99314.89;;;-1.65;71.68
64460;BME280;50828;53.756;21.140;2022-11-23T14:41:05;99318.34;;;-1.67;71.70
64460;BME280;50828;53.756;21.140;2022-11-23T14:46:17;99322.65;;;-1.68;71.55
64460;BME280;50828;53.756;21.140;2022-11-23T14:51:26;99327.15;;;-1.70;71.67
64460;BME280;50828;53.756;21.140;2022-11-23T14:56:36;99325.60;;;-1.72;71.55
64460;BME280;50828;53.756;21.140;2022-11-23T15:01:49;99323.71;;;-1.73;71.70
64460;BME280;50828;53.756;21.140;2022-11-23T15:06:59;99320.27;;;-1.75;71.58
64460;BME280;50828;53.756;21.140;2022-11-23T15:12:16;99317.52;;;-1.77;71.54
64460;BME280;50828;53.756;21.140;2022-11-23T15:17:26;99322.00;;;-1.80;71.82
64460;BME280;50828;53.756;21.140;2022-11-23T15:22:36;99318.38;;;-1.82;71.76
64460;BME280;50828;53.756;21.140;2022-11-23T15:27:44;99314.41;;;-1.81;71.69
64460;BME280;50828;53.756;21.140;2022-11-23T15:32:58;99325.29;;;-1.80;71.83
64460;BME280;50828;53.756;21.140;2022-11-23T15:38:10;99339.09;;;-1.81;71.74
64460;BME280;50828;53.756;21.140;2022-11-23T15:43:24;99346.70;;;-1.83;71.74
64460;BME280;50828;53.756;21.140;2022-11-23T15:48:33;99354.98;;;-1.83;71.86
64460;BME280;50828;53.756;21.140;2022-11-23T15:53:47;99353.42;;;-1.82;72.05
64460;BME280;50828;53.756;21.140;2022-11-23T15:58:56;99349.45;;;-1.81;71.94
64460;BME280;50828;53.756;21.140;2022-11-23T16:04:18;99345.13;;;-1.80;71.94
64460;BME280;50828;53.756;21.140;2022-11-23T16:09:38;99342.71;;;-1.79;72.03
64460;BME280;50828;53.756;21.140;2022-11-23T16:15:40;99343.41;;;-1.77;72.05
64460;BME280;50828;53.756;21.140;2022-11-23T16:20:52;99337.54;;;-1.75;72.12
64460;BME280;50828;53.756;21.140;2022-11-23T16:26:02;99335.11;;;-1.74;72.06
64460;BME280;50828;53.756;21.140;2022-11-23T16:31:29;99339.76;;;-1.72;72.19
64460;BME280;50828;53.756;21.140;2022-11-23T16:36:42;99341.84;;;-1.71;72.06
64460;BME280;50828;53.756;21.140;2022-11-23T16:41:49;99345.64;;;-1.71;72.08
64460;BME280;50828;53.756;21.140;2022-11-23T16:47:19;99351.84;;;-1.69;72.09
64460;BME280;50828;53.756;21.140;2022-11-23T16:52:27;99350.80;;;-1.68;72.08
64460;BME280;50828;53.756;21.140;2022-11-23T16:57:35;99346.48;;;-1.69;72.17
64460;BME280;50828;53.756;21.140;2022-11-23T17:02:44;99349.77;;;-1.66;72.27
64460;BME280;50828;53.756;21.140;2022-11-23T17:07:52;99345.27;;;-1.64;72.25
64460;BME280;50828;53.756;21.140;2022-11-23T17:12:59;99355.96;;;-1.62;72.15
64460;BME280;50828;53.756;21.140;2022-11-23T17:18:12;99355.95;;;-1.60;72.19
64460;BME280;50828;53.756;21.140;2022-11-23T17:23:20;99355.62;;;-1.59;72.28
64460;BME280;50828;53.756;21.140;2022-11-23T17:28:28;99353.89;;;-1.57;72.33
64460;BME280;50828;53.756;21.140;2022-11-23T17:33:35;99349.22;;;-1.55;72.30
64460;BME280;50828;53.756;21.140;2022-11-23T17:38:43;99347.30;;;-1.53;72.23
64460;BME280;50828;53.756;21.140;2022-11-23T17:43:52;99343.33;;;-1.51;72.36
64460;BME280;50828;53.756;21.140;2022-11-23T17:49:00;99337.45;;;-1.49;72.37
64460;BME280;50828;53.756;21.140;2022-11-23T17:54:07;99339.34;;;-1.48;72.19
64460;BME280;50828;53.756;21.140;2022-11-23T17:59:15;99340.90;;;-1.47;72.19
64460;BME280;50828;53.756;21.140;2022-11-23T18:04:23;99332.79;;;-1.49;72.40
64460;BME280;50828;53.756;21.140;2022-11-23T18:09:30;99336.92;;;-1.46;72.30
64460;BME280;50828;53.756;21.140;2022-11-23T18:14:38;99350.39;;;-1.47;72.28
64460;BME280;50828;53.756;21.140;2022-11-23T18:19:46;99359.89;;;-1.47;72.23
64460;BME280;50828;53.756;21.140;2022-11-23T18:24:53;99352.48;;;-1.49;72.22
64460;BME280;50828;53.756;21.140;2022-11-23T18:30:01;99356.45;;;-1.50;72.26
64460;BME280;50828;53.756;21.140;2022-11-23T18:35:10;99347.48;;;-1.52;72.16
64460;BME280;50828;53.756;21.140;2022-11-23T18:40:18;99353.16;;;-1.51;72.33
64460;BME280;50828;53.756;21.140;2022-11-23T18:45:26;99351.10;;;-1.52;72.24
64460;BME280;50828;53.756;21.140;2022-11-23T18:50:33;99356.27;;;-1.50;72.25
64460;BME280;50828;53.756;21.140;2022-11-23T18:55:41;99360.41;;;-1.51;72.22
64460;BME280;50828;53.756;21.140;2022-11-23T19:00:49;99362.15;;;-1.50;72.26
64460;BME280;50828;53.756;21.140;2022-11-23T19:06:01;99359.55;;;-1.50;72.46
64460;BME280;50828;53.756;21.140;2022-11-23T19:11:10;99366.11;;;-1.48;72.53
64460;BME280;50828;53.756;21.140;2022-11-23T19:16:22;99365.94;;;-1.46;72.37
64460;BME280;50828;53.756;21.140;2022-11-23T19:21:32;99365.08;;;-1.45;72.44
64460;BME280;50828;53.756;21.140;2022-11-23T19:26:40;99352.80;;;-1.44;72.44
64460;BME280;50828;53.756;21.140;2022-11-23T19:31:47;99343.66;;;-1.43;72.45
64460;BME280;50828;53.756;21.140;2022-11-23T19:36:59;99341.39;;;-1.44;72.40
64460;BME280;50828;53.756;21.140;2022-11-23T19:42:07;99355.23;;;-1.46;72.23
64460;BME280;50828;53.756;21.140;2022-11-23T19:47:14;99359.73;;;-1.51;72.36
64460;BME280;50828;53.756;21.140;2022-11-23T19:52:28;99368.36;;;-1.49;72.46
64460;BME280;50828;53.756;21.140;2022-11-23T19:57:56;99366.98;;;-1.49;72.26
64460;BME280;50828;53.756;21.140;2022-11-23T20:03:04;99366.81;;;-1.50;72.40
64460;BME280;50828;53.756;21.140;2022-11-23T20:08:12;99372.15;;;-1.51;72.41
64460;BME280;50828;53.756;21.140;2022-11-23T20:13:20;99365.77;;;-1.51;72.50
64460;BME280;50828;53.756;21.140;2022-11-23T20:18:27;99358.34;;;-1.52;72.39
64460;BME280;50828;53.756;21.140;2022-11-23T20:23:35;99358.70;;;-1.52;72.49
64460;BME280;50828;53.756;21.140;2022-11-23T20:28:43;99358.02;;;-1.53;72.48
64460;BME280;50828;53.756;21.140;2022-11-23T20:33:51;99361.98;;;-1.50;72.52
64460;BME280;50828;53.756;21.140;2022-11-23T20:39:02;99357.31;;;-1.50;72.53
64460;BME280;50828;53.756;21.140;2022-11-23T20:44:11;99355.23;;;-1.51;72.51
64460;BME280;50828;53.756;21.140;2022-11-23T20:49:19;99341.60;;;-1.51;72.48
64460;BME280;50828;53.756;21.140;2022-11-23T20:54:27;99349.70;;;-1.52;72.42
64460;BME280;50828;53.756;21.140;2022-11-23T20:59:34;99373.73;;;-1.52;72.40
64460;BME280;50828;53.756;21.140;2022-11-23T21:04:42;99374.42;;;-1.54;72.54
64460;BME280;50828;53.756;21.140;2022-11-23T21:09:51;99372.87;;;-1.54;72.47
64460;BME280;50828;53.756;21.140;2022-11-23T21:14:58;99373.22;;;-1.54;72.38
64460;BME280;50828;53.756;21.140;2022-11-23T21:20:07;99377.02;;;-1.55;72.35
64460;BME280;50828;53.756;21.140;2022-11-23T21:25:15;99377.02;;;-1.55;72.48
64460;BME280;50828;53.756;21.140;2022-11-23T21:30:22;99372.88;;;-1.57;72.32
64460;BME280;50828;53.756;21.140;2022-11-23T21:35:30;99369.42;;;-1.59;72.37
64460;BME280;50828;53.756;21.140;2022-11-23T21:40:40;99373.23;;;-1.60;72.38
64460;BME280;50828;53.756;21.140;2022-11-23T21:45:47;99370.80;;;-1.61;72.54
64460;BME280;50828;53.756;21.140;2022-11-23T21:51:01;99372.70;;;-1.60;72.58
64460;BME280;50828;53.756;21.140;2022-11-23T21:56:11;99367.01;;;-1.60;72.48
64460;BME280;50828;53.756;21.140;2022-11-23T22:01:20;99368.21;;;-1.60;72.45
64460;BME280;50828;53.756;21.140;2022-11-23T22:06:27;99370.98;;;-1.61;72.61
64460;BME280;50828;53.756;21.140;2022-11-23T22:11:36;99374.61;;;-1.61;72.57
64460;BME280;50828;53.756;21.140;2022-11-23T22:16:47;99374.27;;;-1.61;72.43
64460;BME280;50828;53.756;21.140;2022-11-23T22:21:55;99384.46;;;-1.63;72.45
64460;BME280;50828;53.756;21.140;2022-11-23T22:27:03;99393.80;;;-1.64;72.47
64460;BME280;50828;53.756;21.140;2022-11-23T22:32:11;99394.31;;;-1.65;72.48
64460;BME280;50828;53.756;21.140;2022-11-23T22:37:18;99390.86;;;-1.65;72.38
64460;BME280;50828;53.756;21.140;2022-11-23T22:42:26;99380.33;;;-1.68;72.48
64460;BME280;50828;53.756;21.140;2022-11-23T22:47:33;99384.13;;;-1.66;72.31
64460;BME280;50828;53.756;21.140;2022-11-23T22:52:41;99383.09;;;-1.66;72.49
64460;BME280;50828;53.756;21.140;2022-11-23T22:57:48;99382.58;;;-1.66;72.60
64460;BME280;50828;53.756;21.140;2022-11-23T23:02:56;99379.64;;;-1.67;72.46
64460;BME280;50828;53.756;21.140;2022-11-23T23:08:05;99377.90;;;-1.66;72.43
64460;BME280;50828;53.756;21.140;2022-11-23T23:13:13;99378.08;;;-1.66;72.64
64460;BME280;50828;53.756;21.140;2022-11-23T23:18:21;99391.02;;;-1.65;72.59
64460;BME280;50828;53.756;21.140;2022-11-23T23:23:29;99394.83;;;-1.65;72.35
64460;BME280;50828;53.756;21.140;2022-11-23T23:28:36;99397.42;;;-1.65;72.42
64460;BME280;50828;53.756;21.140;2022-11-23T23:33:44;99396.38;;;-1.65;72.59
64460;BME280;50828;53.756;21.140;2022-11-23T23:38:52;99399.83;;;-1.63;72.51
64460;BME280;50828;53.756;21.140;2022-11-23T23:44:00;99403.98;;;-1.62;72.54
64460;BME280;50828;53.756;21.140;2022-11-23T23:49:07;99397.23;;;-1.60;72.63
64460;BME280;50828;53.756;21.140;2022-11-23T23:54:15;99400.17;;;-1.58;72.56
64460;BME280;50828;53.756;21.140;2022-11-23T23:59:22;99403.79;;;-1.57;72.50
